EST,Max TemperatureF,Mean TemperatureF,Min TemperatureF,Max Dew PointF,MeanDew PointF,Min DewpointF,Max Humidity, Mean Humidity, Min Humidity, Max Sea Level PressureIn, Mean Sea Level PressureIn, Min Sea Level PressureIn, Max VisibilityMiles, Mean VisibilityMiles, Min VisibilityMiles, Max Wind SpeedMPH, Mean Wind SpeedMPH, Max Gust SpeedMPH,PrecipitationIn, CloudCover, Events, WindDirDegrees
2014-2-1,55,40,24,43,34,22,100,73,46,30.27,30.19,30.12,10,5,0,9,2,12,0.15,5,Fog-Rain,354
2014-2-2,68,56,43,52,45,41,100,77,53,30.15,30.11,30.06,10,4,0,16,4,24,0.00,4,Fog,224
2014-2-3,77,60,42,65,49,36,96,80,64,30.27,30.07,29.93,10,8,0,24,10,35,0.00,6,Fog,326
2014-2-4,44,42,39,43,39,36,96,86,76,30.39,30.27,30.09,10,5,2,17,9,23,0.26,8,Rain,34
2014-2-5,72,58,43,67,52,42,100,86,72,30.08,29.93,29.77,10,5,0,22,7,30,0.28,7,Fog-Rain,247
2014-2-6,52,43,33,38,29,25,77,65,53,30.36,30.26,30.05,10,8,0,20,10,26,0.11,2,Fog-Snow,15
2014-2-7,50,40,30,33,30,27,96,69,42,30.36,30.31,30.27,10,8,1,9,4,13,0.08,3,Rain-Snow,35
2014-2-8,46,39,32,39,35,30,92,82,71,30.29,30.20,30.13,10,8,2,13,5,16,0.43,3,Rain,17
2014-2-9,53,42,30,42,34,27,92,72,52,30.22,30.13,30.02,10,9,5,13,4,16,0.00,1,,92
2014-2-10,48,42,36,42,34,29,89,75,60,30.26,30.16,30.02,10,10,6,15,8,18,T,5,Rain,35
2014-2-11,36,32,28,29,26,19,92,78,63,30.40,30.34,30.25,10,2,0,20,12,25,0.19,8,Fog-Snow,28
2014-2-12,51,40,29,49,30,20,93,78,63,30.39,30.20,29.68,10,7,3,23,13,29,0.29,7,Rain,33
2014-2-13,51,44,37,50,41,32,100,87,73,29.66,29.53,29.41,10,4,0,21,8,29,0.18,8,Fog-Rain,289
2014-2-14,62,49,35,40,34,30,82,56,30,29.85,29.80,29.70,10,10,10,16,8,22,0.00,0,,225
2014-2-15,52,44,36,46,37,17,93,67,40,30.05,29.69,29.51,10,9,2,23,10,33,0.13,5,Rain,266
2014-2-16,55,43,31,32,25,19,76,57,38,30.17,30.10,30.05,10,10,10,15,5,20,0.00,2,,258
2014-2-17,47,41,34,31,27,23,82,62,41,30.41,30.32,30.21,10,10,10,15,8,18,0.00,2,,58
2014-2-18,68,52,36,43,37,30,92,62,32,30.24,30.18,30.12,10,10,8,13,4,18,0.00,3,,291
2014-2-19,78,59,39,58,49,36,100,73,45,30.15,30.05,29.91,10,6,1,22,6,31,0.22,4,Rain,221
2014-2-20,78,66,53,63,53,35,93,71,49,30.23,30.15,30.10,10,10,10,18,7,25,0.00,1,,157
2014-2-21,78,68,57,67,63,47,93,78,62,30.07,29.96,29.84,10,9,1,25,11,37,0.18,5,Rain-Thunderstorm,211
2014-2-22,64,52,40,48,41,27,100,62,24,30.20,30.10,30.03,10,5,0,12,3,16,0.00,0,Fog,17
2014-2-23,70,53,36,45,38,30,100,63,26,30.13,30.06,29.91,10,7,0,10,3,14,0.00,1,Fog,216
2014-2-24,64,51,38,46,38,28,93,60,27,30.15,30.02,29.88,10,10,10,15,5,20,0.00,0,,336
2014-2-25,69,52,34,47,36,29,85,65,45,30.14,30.02,29.89,10,10,10,17,5,22,0.00,2,,40
2014-2-26,43,40,36,37,34,32,85,78,70,29.99,29.88,29.81,10,10,5,15,7,21,0.06,7,Rain,44
2014-2-27,58,44,29,33,29,26,92,61,30,30.00,29.86,29.76,10,10,7,18,5,24,0.00,0,Fog,276
2014-2-28,45,39,33,26,23,19,85,61,37,30.33,30.24,30.01,10,10,10,23,13,28,0.00,3,,39